Time;durP1;ratioP1;P1;durP2;ratioP2;P2;SDS_P1;SDS_P2;PMS_P1;PMS_P2;Temp;Humidity;BMP_temperature;BMP_pressure;BME280_temperature;BME280_humidity;BME280_pressure;Samples;Min_cycle;Max_cycle;Signal;HPM_P1;HPM_P2
2023/10/02 00:01:48;;;;;;;5.38;3.55;;;17.60;99.90;;;;;;5039521;28;20756;-74
2023/10/02 00:04:17;;;;;;;6.50;3.30;;;17.60;99.90;;;;;;5040329;28;20584;-73
2023/10/02 00:06:47;;;;;;;8.20;3.30;;;17.60;99.90;;;;;;5040256;28;20212;-73
2023/10/02 00:09:16;;;;;;;5.57;2.55;;;17.50;99.90;;;;;;5040524;28;20671;-75
2023/10/02 00:11:41;;;;;;;5.15;3.22;;;17.50;99.90;;;;;;5038942;28;20733;-73
2023/10/02 00:14:19;;;;;;;5.20;3.20;;;17.60;99.90;;;;;;5039610;28;20208;-72
2023/10/02 00:16:59;;;;;;;7.20;3.08;;;17.50;99.90;;;;;;5053342;28;20672;-74
2023/10/02 00:19:30;;;;;;;5.65;3.33;;;17.50;99.90;;;;;;5041266;28;20251;-73
2023/10/02 00:21:57;;;;;;;7.72;3.03;;;17.50;99.90;;;;;;5039522;28;20208;-73
2023/10/02 00:24:27;;;;;;;5.68;2.92;;;17.60;99.90;;;;;;5039909;28;20196;-73
2023/10/02 00:26:58;;;;;;;7.05;3.13;;;17.60;99.90;;;;;;5041086;28;20180;-71
2023/10/02 00:29:28;;;;;;;7.75;2.65;;;17.60;99.90;;;;;;5035353;28;20587;-73
2023/10/02 00:31:56;;;;;;;8.40;2.83;;;17.60;99.90;;;;;;5041284;28;20211;-73
2023/10/02 00:34:32;;;;;;;7.30;3.00;;;17.60;99.90;;;;;;5032801;28;20752;-75
2023/10/02 00:37:08;;;;;;;5.60;2.95;;;17.60;99.90;;;;;;5039284;28;20245;-73
2023/10/02 00:39:36;;;;;;;6.45;3.35;;;17.70;99.90;;;;;;5036920;28;20183;-74
2023/10/02 00:44:55;;;;;;;6.45;3.05;;;17.70;99.90;;;;;;5040393;28;20260;-75
2023/10/02 00:47:45;;;;;;;8.35;2.92;;;17.70;99.90;;;;;;5035514;28;20258;-74
2023/10/02 00:50:17;;;;;;;5.78;3.08;;;17.80;99.90;;;;;;5051648;28;20212;-73
2023/10/02 00:52:47;;;;;;;6.72;2.67;;;17.90;99.90;;;;;;5041981;28;20788;-73
2023/10/02 00:55:15;;;;;;;9.50;2.80;;;17.90;99.90;;;;;;5028193;28;20270;-72
2023/10/02 00:57:42;;;;;;;6.20;2.88;;;17.90;99.90;;;;;;5045354;28;20225;-73
2023/10/02 01:00:30;;;;;;;6.13;3.08;;;17.90;99.90;;;;;;5035820;28;20172;-75
2023/10/02 01:03:01;;;;;;;5.28;2.58;;;17.80;99.90;;;;;;5038149;28;20230;-74
2023/10/02 01:05:41;;;;;;;6.93;3.30;;;17.80;99.90;;;;;;5038366;28;20295;-73
2023/10/02 01:08:49;;;;;;;7.03;2.72;;;17.80;99.90;;;;;;5033874;28;20626;-72
2023/10/02 01:11:14;;;;;;;6.05;3.10;;;17.80;99.90;;;;;;5034762;28;20322;-73
2023/10/02 01:13:40;;;;;;;5.53;3.00;;;17.80;99.90;;;;;;5039120;28;20238;-73
2023/10/02 01:16:08;;;;;;;6.88;3.28;;;17.80;99.90;;;;;;5041346;28;20566;-74
2023/10/02 01:18:38;;;;;;;8.80;3.15;;;17.80;99.90;;;;;;5039066;28;20180;-73
2023/10/02 01:21:11;;;;;;;7.05;2.83;;;17.80;99.90;;;;;;5041278;28;20194;-72
2023/10/02 01:24:07;;;;;;;8.80;3.15;;;17.90;99.90;;;;;;5039834;28;20223;-73
2023/10/02 01:26:50;;;;;;;6.32;2.92;;;17.80;99.90;;;;;;5029507;28;20234;-73
2023/10/02 01:29:16;;;;;;;8.27;3.05;;;17.80;99.90;;;;;;5036755;28;20261;-71
2023/10/02 01:31:44;;;;;;;7.88;3.53;;;17.80;99.90;;;;;;5038616;28;20199;-72
2023/10/02 01:34:32;;;;;;;7.68;3.38;;;17.90;99.90;;;;;;5037456;28;20232;-73
2023/10/02 01:37:00;;;;;;;8.05;3.50;;;17.80;99.90;;;;;;5038595;28;20681;-73
2023/10/02 01:39:26;;;;;;;7.70;3.45;;;17.90;99.90;;;;;;5037572;28;20208;-73
2023/10/02 01:41:54;;;;;;;6.68;3.03;;;17.90;99.90;;;;;;5037758;28;20200;-72
2023/10/02 01:44:22;;;;;;;7.32;3.50;;;17.90;99.90;;;;;;5035674;28;20211;-73
2023/10/02 01:46:49;;;;;;;7.07;3.25;;;17.80;99.90;;;;;;5038493;28;20215;-74
2023/10/02 01:49:25;;;;;;;6.10;3.22;;;17.90;99.90;;;;;;5041106;28;20266;-72
2023/10/02 01:51:55;;;;;;;6.45;3.30;;;17.90;99.90;;;;;;5039605;28;20208;-72
2023/10/02 01:54:22;;;;;;;7.63;3.70;;;17.80;99.90;;;;;;5041345;28;20302;-73
2023/10/02 01:56:49;;;;;;;6.60;3.22;;;17.80;99.90;;;;;;5043136;28;20275;-72
2023/10/02 01:59:19;;;;;;;6.88;3.28;;;17.80;99.90;;;;;;5043463;28;20313;-72
2023/10/02 02:01:46;;;;;;;7.13;3.50;;;17.90;99.90;;;;;;5043909;28;20705;-73
2023/10/02 02:04:18;;;;;;;6.45;3.15;;;17.90;99.90;;;;;;5036160;28;20631;-72
2023/10/02 02:06:55;;;;;;;6.25;3.42;;;17.90;99.90;;;;;;5033861;28;20208;-73
2023/10/02 02:09:24;;;;;;;7.25;3.47;;;17.90;99.90;;;;;;5053128;28;20206;-72
2023/10/02 02:12:12;;;;;;;7.05;3.22;;;17.80;99.90;;;;;;5042619;28;20232;-72
2023/10/02 02:14:51;;;;;;;6.63;3.00;;;17.80;99.90;;;;;;5041268;28;20217;-72
2023/10/02 02:17:19;;;;;;;7.15;3.22;;;17.80;99.90;;;;;;5033499;28;20203;-74
2023/10/02 02:19:48;;;;;;;7.53;3.42;;;17.90;99.90;;;;;;5031053;28;20406;-73
2023/10/02 02:22:31;;;;;;;5.30;3.20;;;17.80;99.90;;;;;;5019414;28;20652;-73
2023/10/02 02:24:58;;;;;;;8.00;4.05;;;17.80;99.90;;;;;;5029170;28;20594;-73
2023/10/02 02:27:24;;;;;;;21.65;11.30;;;17.80;99.90;;;;;;5034448;28;20215;-73
2023/10/02 02:29:56;;;;;;;19.55;11.70;;;17.80;99.90;;;;;;5036258;28;20682;-74
2023/10/02 02:32:44;;;;;;;7.20;4.25;;;17.90;99.90;;;;;;5038387;28;20222;-75
2023/10/02 02:35:14;;;;;;;8.80;4.97;;;17.90;99.90;;;;;;5036204;28;20306;-72
2023/10/02 02:37:41;;;;;;;5.93;3.63;;;17.90;99.90;;;;;;5034756;28;20583;-72
2023/10/02 02:40:23;;;;;;;7.03;3.35;;;17.90;99.90;;;;;;5040161;28;20224;-72
2023/10/02 02:42:52;;;;;;;7.20;3.70;;;17.90;99.90;;;;;;5039061;28;20212;-74
2023/10/02 02:45:28;;;;;;;8.40;3.05;;;17.80;99.90;;;;;;5040292;28;20283;-72
2023/10/02 02:47:57;;;;;;;7.93;4.13;;;17.80;99.90;;;;;;5036610;28;20313;-72
2023/10/02 02:50:28;;;;;;;8.38;3.53;;;17.80;99.90;;;;;;5036172;28;20672;-73
2023/10/02 02:55:38;;;;;;;8.90;3.40;;;17.80;99.90;;;;;;5032308;28;20281;-73
2023/10/02 02:58:06;;;;;;;10.00;3.65;;;17.80;99.90;;;;;;5035722;28;20266;-73
2023/10/02 03:00:35;;;;;;;5.40;3.28;;;17.70;99.90;;;;;;5036869;28;20183;-73
2023/10/02 03:03:02;;;;;;;9.73;3.60;;;17.70;99.90;;;;;;5035765;28;20213;-73
2023/10/02 03:05:38;;;;;;;5.63;2.70;;;17.70;99.90;;;;;;5035284;28;20210;-73
2023/10/02 03:08:05;;;;;;;9.38;4.13;;;17.70;99.90;;;;;;5036891;28;20203;-73
2023/10/02 03:10:36;;;;;;;6.20;3.53;;;17.60;99.90;;;;;;5037977;28;20279;-73
2023/10/02 03:13:03;;;;;;;7.32;3.15;;;17.60;99.90;;;;;;5039519;28;20216;-73
2023/10/02 03:15:47;;;;;;;7.38;3.72;;;17.50;99.90;;;;;;5039207;28;20187;-73
2023/10/02 03:21:24;;;;;;;7.07;3.28;;;17.40;99.90;;;;;;5030106;28;20204;-73
2023/10/02 03:23:59;;;;;;;7.78;3.58;;;17.50;99.90;;;;;;5040921;28;20249;-72
2023/10/02 03:26:37;;;;;;;7.72;3.75;;;17.40;99.90;;;;;;5034380;28;20207;-73
2023/10/02 03:29:11;;;;;;;6.15;3.20;;;17.40;99.90;;;;;;5041033;28;20729;-75
2023/10/02 03:31:51;;;;;;;6.82;3.22;;;17.40;99.90;;;;;;5034260;28;20204;-73
2023/10/02 03:34:30;;;;;;;9.20;3.10;;;17.40;99.90;;;;;;5038001;28;20238;-73
2023/10/02 03:37:08;;;;;;;6.50;3.42;;;17.30;99.90;;;;;;5029006;28;20569;-74
2023/10/02 03:39:52;;;;;;;8.40;3.33;;;17.20;99.90;;;;;;5033244;28;20258;-73
2023/10/02 03:42:31;;;;;;;7.72;3.45;;;17.20;99.90;;;;;;5037140;28;20195;-73
2023/10/02 03:44:57;;;;;;;7.85;3.28;;;17.20;99.90;;;;;;5037101;28;20200;-73
2023/10/02 03:47:25;;;;;;;6.68;4.00;;;17.20;99.90;;;;;;5036026;28;20210;-72
2023/10/02 03:49:51;;;;;;;6.82;3.60;;;17.10;99.90;;;;;;5033385;28;20201;-73
2023/10/02 03:52:17;;;;;;;6.22;3.30;;;17.10;99.90;;;;;;5038738;28;20211;-73
2023/10/02 03:54:47;;;;;;;8.27;4.25;;;17.10;99.90;;;;;;5035593;28;20220;-73
2023/10/02 03:57:37;;;;;;;12.13;4.35;;;17.10;99.90;;;;;;5039152;28;20176;-73
2023/10/02 04:02:51;;;;;;;7.15;3.80;;;17.00;99.90;;;;;;5038008;28;20215;-73
2023/10/02 04:05:32;;;;;;;7.55;4.22;;;16.90;99.90;;;;;;5036711;28;20207;-72
2023/10/02 04:08:36;;;;;;;11.45;3.97;;;16.90;99.90;;;;;;5020617;28;20205;-73
2023/10/02 04:11:03;;;;;;;7.78;4.07;;;16.90;99.90;;;;;;5036914;28;20216;-73
2023/10/02 04:13:35;;;;;;;10.43;4.43;;;16.90;99.90;;;;;;5034745;28;21071;-74
2023/10/02 04:18:45;;;;;;;9.30;3.92;;;16.80;99.90;;;;;;5031464;28;20290;-73
2023/10/02 04:21:22;;;;;;;8.50;3.80;;;16.70;99.90;;;;;;5037086;28;20180;-73
2023/10/02 04:23:56;;;;;;;9.25;4.75;;;16.70;99.90;;;;;;5029304;28;20226;-73
2023/10/02 04:26:23;;;;;;;7.80;4.50;;;16.80;99.90;;;;;;5032735;28;20234;-73
2023/10/02 04:31:41;;;;;;;8.88;3.80;;;16.80;99.90;;;;;;5031196;28;20254;-75
2023/10/02 04:34:24;;;;;;;8.98;4.53;;;16.80;99.90;;;;;;5029913;28;20211;-72
2023/10/02 04:36:51;;;;;;;8.07;3.92;;;16.80;99.90;;;;;;5037123;28;20346;-73
2023/10/02 04:42:12;;;;;;;8.38;3.78;;;16.80;99.90;;;;;;5027361;28;20204;-73
2023/10/02 04:44:44;;;;;;;9.18;4.03;;;16.80;99.90;;;;;;5026376;28;20212;-73
2023/10/02 04:47:17;;;;;;;8.50;4.18;;;16.70;99.90;;;;;;5030790;28;20281;-73
2023/10/02 04:50:34;;;;;;;10.63;4.63;;;16.70;99.90;;;;;;5038951;28;20207;-72
2023/10/02 04:55:22;;;;;;;7.50;3.70;;;16.60;99.90;;;;;;5037946;28;20239;-73
2023/10/02 04:57:52;;;;;;;10.23;4.90;;;16.70;99.90;;;;;;5037085;28;20703;-72
2023/10/02 05:00:32;;;;;;;7.10;3.70;;;16.60;99.90;;;;;;5034056;28;20206;-73
2023/10/02 05:03:24;;;;;;;11.07;4.85;;;16.60;99.90;;;;;;5026965;28;20275;-73
2023/10/02 05:05:53;;;;;;;10.32;4.18;;;16.50;99.90;;;;;;5030646;28;20223;-73
2023/10/02 05:11:08;;;;;;;10.68;5.10;;;16.60;99.90;;;;;;5038816;28;20200;-73
2023/10/02 05:14:09;;;;;;;10.15;5.03;;;16.60;99.90;;;;;;5037380;28;20204;-72
2023/10/02 05:16:32;;;;;;;10.23;4.50;;;16.70;99.90;;;;;;5040818;28;20199;-73
2023/10/02 05:18:59;;;;;;;7.63;3.55;;;16.60;99.90;;;;;;5041950;28;20622;-73
2023/10/02 05:21:49;;;;;;;7.50;4.40;;;16.60;99.90;;;;;;5041354;28;20179;-74
2023/10/02 05:24:16;;;;;;;11.82;5.05;;;16.50;99.90;;;;;;5040205;28;20239;-74
2023/10/02 05:26:46;;;;;;;12.13;4.85;;;16.60;99.90;;;;;;5037968;28;20223;-73
2023/10/02 05:29:36;;;;;;;11.88;4.53;;;16.70;99.90;;;;;;5030496;28;20209;-72
2023/10/02 05:32:16;;;;;;;10.30;4.78;;;16.70;99.90;;;;;;5040069;28;20204;-72
2023/10/02 05:34:58;;;;;;;13.77;5.68;;;16.80;99.90;;;;;;5042262;28;20215;-72
2023/10/02 05:37:34;;;;;;;11.18;4.75;;;16.80;99.90;;;;;;5039575;28;20196;-71
2023/10/02 05:45:40;;;;;;;8.95;4.05;;;16.90;99.90;;;;;;5035931;28;20177;-72
2023/10/02 05:48:14;;;;;;;10.77;4.70;;;17.00;99.90;;;;;;5037974;28;20952;-72
2023/10/02 05:50:52;;;;;;;11.73;4.22;;;17.20;99.90;;;;;;5040794;28;20227;-73
2023/10/02 05:53:20;;;;;;;12.70;4.72;;;17.20;99.90;;;;;;5042299;28;20229;-73
2023/10/02 05:58:38;;;;;;;9.60;4.45;;;19.00;99.90;;;;;;5040784;28;20344;-74
2023/10/02 06:01:06;;;;;;;8.45;4.63;;;20.30;99.90;;;;;;5041348;28;20287;-73
2023/10/02 06:03:36;;;;;;;11.70;4.30;;;21.30;99.90;;;;;;5036876;28;20326;-73
2023/10/02 06:06:18;;;;;;;7.82;4.60;;;22.00;99.90;;;;;;5043375;28;20314;-74
2023/10/02 06:08:55;;;;;;;9.32;4.68;;;22.70;99.90;;;;;;5035322;28;20200;-72
2023/10/02 06:11:25;;;;;;;9.50;5.28;;;23.30;99.90;;;;;;5038915;28;20678;-73
2023/10/02 06:14:09;;;;;;;9.32;4.55;;;23.90;99.90;;;;;;5036817;28;20294;-71
2023/10/02 06:16:38;;;;;;;12.77;5.45;;;24.10;99.90;;;;;;5038815;28;20203;-71
2023/10/02 06:19:07;;;;;;;10.52;4.90;;;24.40;99.90;;;;;;5039877;28;20201;-70
2023/10/02 06:21:47;;;;;;;8.55;3.92;;;25.00;99.90;;;;;;5040987;28;20588;-71
2023/10/02 06:24:19;;;;;;;9.05;4.53;;;25.00;99.90;;;;;;5042829;28;20214;-71
2023/10/02 06:26:58;;;;;;;9.07;4.88;;;25.50;99.90;;;;;;5037579;28;20205;-71
2023/10/02 06:29:25;;;;;;;10.80;4.55;;;25.80;99.90;;;;;;5041994;28;20283;-71
2023/10/02 06:32:02;;;;;;;9.25;4.35;;;26.00;99.90;;;;;;5039821;28;20215;-71
2023/10/02 06:34:39;;;;;;;9.30;5.03;;;26.50;99.90;;;;;;5029964;28;20223;-72
2023/10/02 06:37:11;;;;;;;9.35;5.03;;;26.40;99.90;;;;;;5033539;28;20259;-71
2023/10/02 06:39:46;;;;;;;9.40;5.57;;;26.60;99.90;;;;;;5030214;28;20626;-71
2023/10/02 06:42:19;;;;;;;9.25;5.05;;;26.90;99.90;;;;;;5034198;28;20234;-70
2023/10/02 06:44:54;;;;;;;10.10;5.60;;;26.90;99.90;;;;;;5040634;28;20220;-73
2023/10/02 06:47:29;;;;;;;9.52;5.32;;;27.20;99.90;;;;;;5035378;28;20727;-71
2023/10/02 06:50:21;;;;;;;10.13;5.10;;;27.10;99.90;;;;;;5040982;28;20231;-71
2023/10/02 06:52:41;;;;;;;9.93;5.32;;;27.20;99.90;;;;;;5032972;28;20208;-71
2023/10/02 06:55:07;;;;;;;10.27;5.13;;;26.90;99.90;;;;;;5043158;28;20200;-71
2023/10/02 06:57:36;;;;;;;12.27;5.80;;;26.20;99.90;;;;;;5036511;28;20238;-71
2023/10/02 07:00:04;;;;;;;9.30;4.72;;;26.40;99.90;;;;;;5039909;28;20176;-71
2023/10/02 07:02:32;;;;;;;8.80;4.97;;;25.90;99.90;;;;;;5029825;28;21222;-72
2023/10/02 07:04:58;;;;;;;10.57;4.97;;;26.10;99.90;;;;;;5031739;28;20221;-71
2023/10/02 07:07:28;;;;;;;7.72;4.93;;;26.00;99.90;;;;;;5041946;28;20213;-73
2023/10/02 07:09:55;;;;;;;10.15;5.38;;;26.70;99.90;;;;;;5035476;28;20734;-74
2023/10/02 07:12:22;;;;;;;12.20;5.20;;;27.30;99.90;;;;;;5038440;28;20732;-71
2023/10/02 07:14:48;;;;;;;8.82;4.63;;;27.60;99.90;;;;;;5040327;28;20196;-74
2023/10/02 07:17:18;;;;;;;12.13;6.13;;;28.20;99.90;;;;;;5033009;28;20212;-74
2023/10/02 07:19:50;;;;;;;9.95;5.10;;;28.60;99.90;;;;;;5039959;28;20235;-72
2023/10/02 07:22:24;;;;;;;7.90;4.75;;;28.20;99.90;;;;;;5035549;28;20258;-72
2023/10/02 07:24:55;;;;;;;9.00;5.13;;;27.60;99.90;;;;;;5038582;28;20227;-70
2023/10/02 07:27:24;;;;;;;8.27;4.75;;;27.60;99.90;;;;;;5028119;28;20184;-74
2023/10/02 07:29:59;;;;;;;10.80;5.60;;;27.60;99.90;;;;;;5033501;28;20639;-70
2023/10/02 07:32:33;;;;;;;10.77;5.32;;;28.20;99.90;;;;;;5035961;28;20216;-73
2023/10/02 07:35:21;;;;;;;9.38;5.25;;;28.00;99.90;;;;;;5036690;28;20290;-72
2023/10/02 07:37:59;;;;;;;10.50;5.50;;;28.30;99.90;;;;;;5025869;28;20294;-71
2023/10/02 07:40:46;;;;;;;8.45;4.65;;;28.50;99.90;;;;;;5039232;28;20248;-71
2023/10/02 07:43:18;;;;;;;9.52;4.97;;;27.70;99.90;;;;;;5049753;28;20219;-70
2023/10/02 07:48:35;;;;;;;8.45;4.93;;;28.60;99.90;;;;;;5048978;28;20247;-71
2023/10/02 07:51:01;;;;;;;11.25;5.50;;;28.10;99.90;;;;;;5050481;28;20180;-72
2023/10/02 07:53:39;;;;;;;10.25;4.25;;;27.60;99.90;;;;;;5027026;28;20630;-74
2023/10/02 07:56:14;;;;;;;9.95;4.93;;;28.50;99.90;;;;;;5049106;28;20289;-77
2023/10/02 07:58:41;;;;;;;11.95;5.03;;;28.90;99.90;;;;;;5055485;28;20563;-76
2023/10/02 08:01:11;;;;;;;9.82;4.88;;;28.40;99.90;;;;;;5053869;28;20219;-78
2023/10/02 08:03:44;;;;;;;9.68;5.45;;;28.80;99.90;;;;;;5033036;28;20208;-76
2023/10/02 08:06:21;;;;;;;9.90;4.85;;;28.70;99.90;;;;;;5053970;28;20172;-78
2023/10/02 08:09:24;;;;;;;9.63;4.55;;;28.90;99.90;;;;;;5040266;28;20290;-77
2023/10/02 08:11:34;;;;;;;9.68;4.60;;;29.10;99.90;;;;;;5051241;28;20246;-77
2023/10/02 08:14:01;;;;;;;6.65;3.65;;;29.20;99.90;;;;;;5044648;28;20227;-77
2023/10/02 08:16:27;;;;;;;10.25;4.43;;;29.50;99.90;;;;;;5056536;28;20278;-76
2023/10/02 08:18:57;;;;;;;8.40;5.18;;;29.90;99.90;;;;;;5055596;28;20200;-73
2023/10/02 08:21:46;;;;;;;11.73;4.90;;;29.70;99.90;;;;;;5050631;28;20171;-76
2023/10/02 08:24:13;;;;;;;10.30;4.38;;;29.90;99.90;;;;;;5049883;28;20199;-74
2023/10/02 08:26:43;;;;;;;10.07;4.82;;;29.30;99.90;;;;;;5053848;28;20203;-74
2023/10/02 08:29:11;;;;;;;9.48;4.68;;;28.70;99.90;;;;;;5052295;28;20196;-74
2023/10/02 08:31:49;;;;;;;9.38;4.53;;;28.10;99.90;;;;;;5037179;28;20246;-74
2023/10/02 08:34:20;;;;;;;7.85;4.20;;;28.00;99.90;;;;;;5054979;28;20226;-74
2023/10/02 08:37:04;;;;;;;9.05;5.22;;;27.70;99.90;;;;;;5056834;28;20448;-80
2023/10/02 08:39:31;;;;;;;10.13;5.38;;;27.20;99.90;;;;;;5055805;28;20168;-75
2023/10/02 08:41:59;;;;;;;6.75;4.05;;;26.30;99.90;;;;;;5049833;28;20612;-73
2023/10/02 08:44:25;;;;;;;10.95;4.43;;;26.40;99.90;;;;;;5056417;28;20732;-75
2023/10/02 08:46:50;;;;;;;10.20;4.68;;;26.10;99.90;;;;;;5032255;28;20331;-75
2023/10/02 08:49:19;;;;;;;13.55;4.55;;;26.20;99.90;;;;;;5056450;28;20223;-75
2023/10/02 08:51:50;;;;;;;8.50;4.32;;;26.00;99.90;;;;;;5055625;28;20658;-75
2023/10/02 08:54:17;;;;;;;9.45;3.83;;;26.40;99.90;;;;;;5031405;28;20195;-75
2023/10/02 08:56:49;;;;;;;10.02;4.13;;;26.50;99.90;;;;;;5037070;28;20761;-75
2023/10/02 08:59:16;;;;;;;10.55;4.93;;;27.10;99.90;;;;;;5041143;28;20214;-75
2023/10/02 09:01:45;;;;;;;9.65;4.30;;;27.10;99.90;;;;;;5027118;28;20291;-75
2023/10/02 09:06:58;;;;;;;7.90;3.70;;;27.10;99.90;;;;;;5055149;28;20233;-73
2023/10/02 09:09:36;;;;;;;8.43;4.07;;;27.00;99.90;;;;;;5055646;28;20195;-75
2023/10/02 09:12:03;;;;;;;8.50;4.30;;;27.20;99.90;;;;;;5046314;28;21002;-75
2023/10/02 09:20:00;;;;;;;9.88;4.00;;;27.20;99.90;;;;;;5055486;28;20206;-75
2023/10/02 09:22:27;;;;;;;8.38;3.95;;;27.20;99.90;;;;;;5055718;28;20215;-75
2023/10/02 09:25:18;;;;;;;6.85;3.58;;;27.50;99.90;;;;;;5048673;28;20212;-74
2023/10/02 09:27:57;;;;;;;8.00;3.90;;;27.80;99.90;;;;;;5034713;28;20250;-75
2023/10/02 09:33:03;;;;;;;10.90;3.95;;;26.80;99.90;;;;;;5057683;28;20214;-75
2023/10/02 09:35:30;;;;;;;9.43;3.72;;;26.70;99.90;;;;;;5057259;28;20290;-75
2023/10/02 09:38:10;;;;;;;8.98;4.20;;;26.70;99.90;;;;;;5039573;28;20214;-75
2023/10/02 09:41:01;;;;;;;9.18;4.72;;;26.70;99.90;;;;;;5055041;28;20199;-74
2023/10/02 09:43:32;;;;;;;7.95;4.55;;;26.40;99.90;;;;;;5054749;28;20219;-74
2023/10/02 09:46:00;;;;;;;10.30;4.78;;;27.20;99.90;;;;;;5060808;28;20215;-74
2023/10/02 09:49:07;;;;;;;8.13;3.85;;;27.80;99.90;;;;;;5058261;28;20259;-74
2023/10/02 09:51:45;;;;;;;10.10;4.35;;;28.10;99.90;;;;;;5047756;28;20229;-76
2023/10/02 09:54:34;;;;;;;8.32;4.00;;;28.30;99.90;;;;;;5055632;28;20605;-74
2023/10/02 09:57:13;;;;;;;7.10;3.63;;;27.90;99.90;;;;;;5056419;28;20677;-74
2023/10/02 09:59:51;;;;;;;8.23;3.78;;;28.10;99.90;;;;;;5042389;28;20237;-75
2023/10/02 10:07:51;;;;;;;8.68;4.07;;;28.40;99.90;;;;;;5061383;28;20198;-75
2023/10/02 10:10:48;;;;;;;7.93;4.53;;;28.60;99.90;;;;;;5051954;28;20214;-76
2023/10/02 10:13:26;;;;;;;7.47;4.10;;;28.70;99.90;;;;;;5061024;28;20585;-74
2023/10/02 10:16:19;;;;;;;8.40;4.22;;;28.50;99.90;;;;;;5062221;28;20274;-74
2023/10/02 10:22:04;;;;;;;8.43;4.35;;;28.10;99.90;;;;;;5053794;28;20182;-76
2023/10/02 10:27:40;;;;;;;9.75;4.63;;;27.80;99.90;;;;;;5053996;28;20267;-78
2023/10/02 10:30:24;;;;;;;6.47;3.97;;;27.90;99.90;;;;;;5061271;28;20176;-76
2023/10/02 10:35:48;;;;;;;6.82;3.67;;;27.80;99.90;;;;;;5060677;28;20216;-75
2023/10/02 10:38:25;;;;;;;6.93;3.80;;;27.70;99.90;;;;;;5040567;28;20564;-80
2023/10/02 10:41:01;;;;;;;7.53;3.90;;;27.60;99.90;;;;;;5038098;28;20218;-72
2023/10/02 10:43:43;;;;;;;8.68;3.50;;;27.60;99.90;;;;;;5034623;28;20215;-75
2023/10/02 10:46:29;;;;;;;6.57;3.80;;;27.60;99.90;;;;;;5052955;28;20204;-76
2023/10/02 10:49:08;;;;;;;7.55;3.50;;;27.70;99.90;;;;;;5055183;28;20218;-75
2023/10/02 10:51:39;;;;;;;6.53;3.25;;;27.80;99.90;;;;;;5050844;28;20236;-76
2023/10/02 10:54:12;;;;;;;8.43;5.22;;;27.50;99.90;;;;;;5059043;28;20195;-74
2023/10/02 10:56:44;;;;;;;10.25;4.30;;;27.80;99.90;;;;;;5066919;28;20566;-76
2023/10/02 10:59:24;;;;;;;8.30;3.65;;;27.70;99.90;;;;;;5067167;28;20289;-74
2023/10/02 11:02:09;;;;;;;6.30;3.08;;;27.70;99.90;;;;;;5063437;28;20202;-75
2023/10/02 11:04:39;;;;;;;6.60;3.83;;;27.60;99.90;;;;;;5038639;28;20211;-75
2023/10/02 11:07:21;;;;;;;5.93;3.10;;;27.60;99.90;;;;;;5047702;28;20211;-77
2023/10/02 11:12:59;;;;;;;6.45;3.13;;;27.60;99.90;;;;;;5054870;28;20212;-74
2023/10/02 11:15:46;;;;;;;6.45;3.30;;;27.70;99.90;;;;;;5056021;28;20211;-80
2023/10/02 11:18:19;;;;;;;9.05;4.22;;;27.10;99.90;;;;;;5048772;28;20582;-76
2023/10/02 11:20:55;;;;;;;6.90;3.75;;;27.20;99.90;;;;;;5063479;28;20837;-79
2023/10/02 11:23:39;;;;;;;8.65;3.60;;;27.20;99.90;;;;;;5031265;28;20242;-81
2023/10/02 11:26:12;;;;;;;10.93;3.90;;;27.30;99.90;;;;;;5048051;28;20203;-78
2023/10/02 11:28:41;;;;;;;7.43;3.95;;;27.10;99.90;;;;;;5044976;28;20207;-78
2023/10/02 11:31:29;;;;;;;10.55;3.30;;;27.10;99.90;;;;;;5055346;28;20207;-76
2023/10/02 11:34:02;;;;;;;8.30;4.13;;;26.70;99.90;;;;;;5037579;28;20223;-77
2023/10/02 11:36:33;;;;;;;8.75;3.55;;;26.90;99.90;;;;;;5052004;28;20207;-78
2023/10/02 11:39:00;;;;;;;7.97;4.43;;;26.60;99.90;;;;;;5055485;28;20167;-78
2023/10/02 11:41:27;;;;;;;8.23;3.47;;;26.90;99.90;;;;;;5057437;28;20219;-75
2023/10/02 11:43:54;;;;;;;7.63;3.67;;;26.80;99.90;;;;;;5060783;28;20211;-75
2023/10/02 11:46:21;;;;;;;8.32;3.50;;;26.90;99.90;;;;;;5057979;28;20223;-76
2023/10/02 11:48:51;;;;;;;8.27;4.22;;;27.20;99.90;;;;;;5044258;28;20294;-76
2023/10/02 11:51:17;;;;;;;7.82;3.90;;;27.40;99.90;;;;;;5043548;28;20952;-74
2023/10/02 11:53:42;;;;;;;10.02;4.10;;;27.20;99.90;;;;;;5058868;28;20275;-73
2023/10/02 11:56:08;;;;;;;10.00;4.72;;;27.10;99.90;;;;;;5057039;28;20200;-74
2023/10/02 11:58:34;;;;;;;9.63;4.30;;;26.90;99.90;;;;;;5062389;28;20207;-75
2023/10/02 12:01:04;;;;;;;7.93;4.10;;;27.10;99.90;;;;;;5060829;28;20713;-74
2023/10/02 12:03:36;;;;;;;10.35;4.60;;;27.10;99.90;;;;;;5033372;28;20199;-74
2023/10/02 12:06:10;;;;;;;7.97;3.60;;;27.20;99.90;;;;;;5059825;28;20197;-74
2023/10/02 12:08:38;;;;;;;10.65;4.20;;;27.20;99.90;;;;;;5056890;28;20211;-75
2023/10/02 12:11:04;;;;;;;6.03;4.13;;;27.20;99.90;;;;;;5053481;28;20288;-74
2023/10/02 12:13:29;;;;;;;8.55;4.03;;;27.30;99.90;;;;;;5054582;28;20215;-74
2023/10/02 12:15:56;;;;;;;11.52;4.43;;;27.20;99.90;;;;;;5059370;28;20278;-75
2023/10/02 12:18:22;;;;;;;7.95;4.32;;;27.30;99.90;;;;;;5040400;28;20253;-73
2023/10/02 12:20:49;;;;;;;5.78;3.30;;;27.40;99.90;;;;;;5060689;28;20214;-72
2023/10/02 12:23:16;;;;;;;9.18;4.45;;;27.40;99.90;;;;;;5041728;28;20623;-74
2023/10/02 12:25:48;;;;;;;8.30;4.05;;;27.50;99.90;;;;;;5060408;28;20219;-74
2023/10/02 12:28:15;;;;;;;8.35;3.67;;;27.50;99.90;;;;;;5040719;28;20289;-73
2023/10/02 12:30:41;;;;;;;7.65;4.65;;;27.40;99.90;;;;;;5060146;28;20262;-74
2023/10/02 12:33:06;;;;;;;7.72;3.67;;;27.30;99.90;;;;;;5042644;28;20214;-75
2023/10/02 12:35:33;;;;;;;9.20;3.85;;;27.10;99.90;;;;;;5047630;28;20290;-74
2023/10/02 12:37:59;;;;;;;8.30;4.03;;;27.00;99.90;;;;;;5058351;28;20230;-74
2023/10/02 12:40:31;;;;;;;8.27;3.97;;;26.90;99.90;;;;;;5056664;28;20215;-74
2023/10/02 12:43:03;;;;;;;9.40;4.53;;;27.00;99.90;;;;;;5055769;28;20215;-74
2023/10/02 12:45:35;;;;;;;9.15;4.25;;;26.90;99.90;;;;;;5059386;28;20183;-74
2023/10/02 12:48:12;;;;;;;10.05;4.78;;;26.90;99.90;;;;;;5042824;28;20172;-74
2023/10/02 12:50:41;;;;;;;8.13;4.47;;;26.70;99.90;;;;;;5057705;28;20207;-74
2023/10/02 12:53:10;;;;;;;8.60;3.90;;;26.60;99.90;;;;;;5054829;28;20225;-74
2023/10/02 12:55:36;;;;;;;10.32;4.68;;;26.50;99.90;;;;;;5038829;28;20214;-74
2023/10/02 12:58:04;;;;;;;6.72;3.55;;;26.50;99.90;;;;;;5062149;28;20198;-74
2023/10/02 13:00:33;;;;;;;8.75;4.10;;;26.50;99.90;;;;;;5049138;28;20171;-74
2023/10/02 13:02:59;;;;;;;8.10;4.13;;;26.40;99.90;;;;;;5060901;28;20218;-74
2023/10/02 13:05:25;;;;;;;7.95;3.58;;;26.50;99.90;;;;;;5062499;28;20211;-80
2023/10/02 13:07:58;;;;;;;10.20;3.60;;;26.40;99.90;;;;;;5038012;28;20701;-79
2023/10/02 13:10:24;;;;;;;8.90;3.00;;;26.40;99.90;;;;;;5033644;28;20203;-77
2023/10/02 13:12:50;;;;;;;7.65;3.83;;;26.30;99.90;;;;;;5054848;28;20257;-78
2023/10/02 13:15:16;;;;;;;6.45;3.45;;;26.30;99.90;;;;;;5045948;28;20180;-77
2023/10/02 13:17:45;;;;;;;7.78;3.80;;;26.30;99.90;;;;;;5053965;28;20234;-76
2023/10/02 13:20:10;;;;;;;6.78;3.40;;;26.40;99.90;;;;;;5053181;28;20199;-76
2023/10/02 13:22:37;;;;;;;7.15;3.50;;;26.40;99.90;;;;;;5056554;28;20213;-79
2023/10/02 13:25:04;;;;;;;7.07;3.60;;;26.20;99.90;;;;;;5057884;28;20207;-79
2023/10/02 13:27:33;;;;;;;7.82;4.05;;;26.30;99.90;;;;;;5056045;28;20664;-79
2023/10/02 13:29:59;;;;;;;7.75;3.78;;;26.30;99.90;;;;;;5016657;28;20194;-75
2023/10/02 13:32:26;;;;;;;8.02;3.53;;;26.30;99.90;;;;;;5034254;28;20211;-75
2023/10/02 13:34:54;;;;;;;6.95;3.28;;;26.30;99.90;;;;;;5033799;28;20243;-75
2023/10/02 13:37:20;;;;;;;7.28;3.78;;;26.30;99.90;;;;;;5043292;28;20690;-75
2023/10/02 13:39:45;;;;;;;6.95;3.67;;;26.30;99.90;;;;;;5050227;28;20231;-75
2023/10/02 13:42:11;;;;;;;5.25;3.15;;;26.30;99.90;;;;;;5057819;28;20643;-75
2023/10/02 13:44:37;;;;;;;7.82;3.05;;;26.30;99.90;;;;;;5036508;28;20282;-75
2023/10/02 13:47:05;;;;;;;7.57;3.72;;;26.30;99.90;;;;;;5052223;28;20294;-75
2023/10/02 13:49:31;;;;;;;5.50;2.95;;;26.30;99.90;;;;;;5054162;28;20801;-75
2023/10/02 13:51:56;;;;;;;9.13;4.00;;;26.40;99.90;;;;;;5053595;28;20294;-75
2023/10/02 13:54:22;;;;;;;9.00;3.85;;;26.40;99.90;;;;;;5053904;28;20203;-76
2023/10/02 13:56:48;;;;;;;7.22;3.40;;;26.40;99.90;;;;;;5050375;28;20178;-75
2023/10/02 13:59:14;;;;;;;7.90;3.55;;;26.50;99.90;;;;;;5051682;28;20210;-76
2023/10/02 14:01:40;;;;;;;6.25;3.30;;;26.40;99.90;;;;;;5057079;28;20233;-75
2023/10/02 14:04:10;;;;;;;7.97;3.28;;;26.40;99.90;;;;;;5057640;28;20867;-77
2023/10/02 14:06:36;;;;;;;5.95;3.15;;;26.40;99.90;;;;;;5038232;28;20667;-74
2023/10/02 14:09:03;;;;;;;6.65;2.88;;;26.40;99.90;;;;;;5066332;28;20176;-75
2023/10/02 14:11:29;;;;;;;7.03;3.55;;;26.40;99.90;;;;;;5039667;28;20291;-74
2023/10/02 14:13:56;;;;;;;5.38;2.90;;;26.30;99.90;;;;;;5062719;28;20586;-75
2023/10/02 14:16:23;;;;;;;6.72;3.00;;;26.30;99.90;;;;;;5064848;28;20238;-75
2023/10/02 14:18:51;;;;;;;7.55;3.28;;;26.20;99.90;;;;;;5061859;28;20591;-75